sensor_id;sensor_type;location;lat;lon;timestamp;pressure;altitude;pressure_sealevel;temperature;humidity
63552;BME280;49698;48.072;7.800;2024-02-26T00:01:38;97422.69;;;7.82;68.32
63552;BME280;49698;48.072;7.800;2024-02-26T00:04:06;97426.34;;;7.86;69.26
63552;BME280;49698;48.072;7.800;2024-02-26T00:06:34;97430.28;;;7.89;70.23
63552;BME280;49698;48.072;7.800;2024-02-26T00:09:03;97430.13;;;7.94;71.16
63552;BME280;49698;48.072;7.800;2024-02-26T00:11:32;97432.94;;;7.97;71.88
63552;BME280;49698;48.072;7.800;2024-02-26T00:14:00;97432.16;;;7.97;73.04
63552;BME280;49698;48.072;7.800;2024-02-26T00:16:28;97429.50;;;7.97;73.23
63552;BME280;49698;48.072;7.800;2024-02-26T00:18:56;97435.16;;;7.95;74.39
63552;BME280;49698;48.072;7.800;2024-02-26T00:21:23;97425.88;;;7.93;75.20
63552;BME280;49698;48.072;7.800;2024-02-26T00:23:52;97428.88;;;7.91;75.10
63552;BME280;49698;48.072;7.800;2024-02-26T00:26:21;97422.72;;;7.91;75.84
63552;BME280;49698;48.072;7.800;2024-02-26T00:28:49;97421.94;;;7.90;76.77
63552;BME280;49698;48.072;7.800;2024-02-26T00:31:17;97409.19;;;7.87;77.03
63552;BME280;49698;48.072;7.800;2024-02-26T00:33:45;97404.47;;;7.84;77.55
63552;BME280;49698;48.072;7.800;2024-02-26T00:36:13;97416.56;;;7.81;77.27
63552;BME280;49698;48.072;7.800;2024-02-26T00:38:41;97403.84;;;7.78;77.65
63552;BME280;49698;48.072;7.800;2024-02-26T00:41:09;97412.47;;;7.75;78.23
63552;BME280;49698;48.072;7.800;2024-02-26T00:43:38;97409.66;;;7.72;80.04
63552;BME280;49698;48.072;7.800;2024-02-26T00:46:06;97414.66;;;7.65;80.60
63552;BME280;49698;48.072;7.800;2024-02-26T00:48:34;97409.75;;;7.58;80.99
63552;BME280;49698;48.072;7.800;2024-02-26T00:51:03;97406.47;;;7.52;81.73
63552;BME280;49698;48.072;7.800;2024-02-26T00:53:32;97420.75;;;7.48;82.25
63552;BME280;49698;48.072;7.800;2024-02-26T00:56:00;97413.66;;;7.43;82.61
63552;BME280;49698;48.072;7.800;2024-02-26T00:58:28;97412.69;;;7.39;83.62
63552;BME280;49698;48.072;7.800;2024-02-26T01:00:57;97423.09;;;7.32;84.39
63552;BME280;49698;48.072;7.800;2024-02-26T01:03:25;97422.09;;;7.28;84.89
63552;BME280;49698;48.072;7.800;2024-02-26T01:05:52;97426.47;;;7.24;85.06
63552;BME280;49698;48.072;7.800;2024-02-26T01:08:22;97414.84;;;7.20;85.22
63552;BME280;49698;48.072;7.800;2024-02-26T01:10:50;97418.94;;;7.17;85.27
63552;BME280;49698;48.072;7.800;2024-02-26T01:13:17;97405.41;;;7.14;85.61
63552;BME280;49698;48.072;7.800;2024-02-26T01:15:45;97401.47;;;7.11;86.02
63552;BME280;49698;48.072;7.800;2024-02-26T01:18:14;97409.00;;;7.09;86.81
63552;BME280;49698;48.072;7.800;2024-02-26T01:20:42;97407.72;;;7.06;86.55
63552;BME280;49698;48.072;7.800;2024-02-26T01:23:10;97401.91;;;7.04;86.68
63552;BME280;49698;48.072;7.800;2024-02-26T01:25:38;97400.31;;;7.03;87.12
63552;BME280;49698;48.072;7.800;2024-02-26T01:28:06;97395.59;;;7.00;87.30
63552;BME280;49698;48.072;7.800;2024-02-26T01:30:34;97397.81;;;6.98;87.09
63552;BME280;49698;48.072;7.800;2024-02-26T01:33:02;97388.81;;;6.94;87.64
63552;BME280;49698;48.072;7.800;2024-02-26T01:35:31;97389.44;;;6.91;87.27
63552;BME280;49698;48.072;7.800;2024-02-26T01:37:59;97389.59;;;6.86;87.72
63552;BME280;49698;48.072;7.800;2024-02-26T01:40:27;97385.63;;;6.83;87.88
63552;BME280;49698;48.072;7.800;2024-02-26T01:42:56;97380.63;;;6.82;88.33
63552;BME280;49698;48.072;7.800;2024-02-26T01:45:25;97388.63;;;6.82;88.64
63552;BME280;49698;48.072;7.800;2024-02-26T01:47:53;97380.63;;;6.82;88.35
63552;BME280;49698;48.072;7.800;2024-02-26T01:50:22;97383.88;;;6.79;88.64
63552;BME280;49698;48.072;7.800;2024-02-26T01:52:52;97377.75;;;6.78;89.22
63552;BME280;49698;48.072;7.800;2024-02-26T01:55:22;97381.50;;;6.77;88.92
63552;BME280;49698;48.072;7.800;2024-02-26T01:57:51;97371.63;;;6.78;89.14
63552;BME280;49698;48.072;7.800;2024-02-26T02:00:22;97373.81;;;6.76;89.38
63552;BME280;49698;48.072;7.800;2024-02-26T02:02:51;97370.19;;;6.72;89.88
63552;BME280;49698;48.072;7.800;2024-02-26T02:05:21;97369.69;;;6.70;90.36
63552;BME280;49698;48.072;7.800;2024-02-26T02:07:49;97362.78;;;6.69;90.21
63552;BME280;49698;48.072;7.800;2024-02-26T02:10:19;97360.44;;;6.67;90.39
63552;BME280;49698;48.072;7.800;2024-02-26T02:12:49;97361.81;;;6.65;91.06
63552;BME280;49698;48.072;7.800;2024-02-26T02:15:17;97364.03;;;6.63;91.08
63552;BME280;49698;48.072;7.800;2024-02-26T02:17:45;97361.97;;;6.59;91.31
63552;BME280;49698;48.072;7.800;2024-02-26T02:20:15;97358.00;;;6.57;91.76
63552;BME280;49698;48.072;7.800;2024-02-26T02:22:44;97367.44;;;6.54;92.09
63552;BME280;49698;48.072;7.800;2024-02-26T02:25:12;97368.50;;;6.53;91.93
63552;BME280;49698;48.072;7.800;2024-02-26T02:27:41;97365.06;;;6.53;92.28
63552;BME280;49698;48.072;7.800;2024-02-26T02:30:10;97361.59;;;6.52;92.57
63552;BME280;49698;48.072;7.800;2024-02-26T02:32:39;97361.13;;;6.50;92.26
63552;BME280;49698;48.072;7.800;2024-02-26T02:35:08;97359.53;;;6.49;92.32
63552;BME280;49698;48.072;7.800;2024-02-26T02:37:35;97360.31;;;6.50;92.59
63552;BME280;49698;48.072;7.800;2024-02-26T02:40:05;97359.84;;;6.48;93.23
63552;BME280;49698;48.072;7.800;2024-02-26T02:42:34;97362.34;;;6.44;93.02
63552;BME280;49698;48.072;7.800;2024-02-26T02:45:02;97366.13;;;6.43;93.10
63552;BME280;49698;48.072;7.800;2024-02-26T02:47:30;97368.78;;;6.43;93.13
63552;BME280;49698;48.072;7.800;2024-02-26T02:49:58;97368.78;;;6.43;93.97
63552;BME280;49698;48.072;7.800;2024-02-26T02:52:26;97370.66;;;6.43;94.34
63552;BME280;49698;48.072;7.800;2024-02-26T02:54:54;97375.97;;;6.43;95.06
63552;BME280;49698;48.072;7.800;2024-02-26T02:57:23;97368.28;;;6.41;95.85
63552;BME280;49698;48.072;7.800;2024-02-26T02:59:50;97374.41;;;6.42;96.72
63552;BME280;49698;48.072;7.800;2024-02-26T03:02:18;97370.97;;;6.41;96.74
63552;BME280;49698;48.072;7.800;2024-02-26T03:04:46;97374.41;;;6.42;95.83
63552;BME280;49698;48.072;7.800;2024-02-26T03:07:14;97377.88;;;6.42;96.23
63552;BME280;49698;48.072;7.800;2024-02-26T03:09:42;97378.97;;;6.41;95.99
63552;BME280;49698;48.072;7.800;2024-02-26T03:12:10;97385.09;;;6.42;96.02
63552;BME280;49698;48.072;7.800;2024-02-26T03:14:39;97384.31;;;6.41;96.44
63552;BME280;49698;48.072;7.800;2024-02-26T03:17:07;97405.66;;;6.41;96.77
63552;BME280;49698;48.072;7.800;2024-02-26T03:19:35;97405.66;;;6.41;96.54
63552;BME280;49698;48.072;7.800;2024-02-26T03:22:03;97401.41;;;6.40;97.24
63552;BME280;49698;48.072;7.800;2024-02-26T03:24:31;97403.28;;;6.40;97.33
63552;BME280;49698;48.072;7.800;2024-02-26T03:26:59;97393.41;;;6.40;97.40
63552;BME280;49698;48.072;7.800;2024-02-26T03:29:26;97402.66;;;6.43;97.57
63552;BME280;49698;48.072;7.800;2024-02-26T03:31:55;97410.38;;;6.44;97.30
63552;BME280;49698;48.072;7.800;2024-02-26T03:34:23;97411.34;;;6.48;96.89
63552;BME280;49698;48.072;7.800;2024-02-26T03:36:52;97417.66;;;6.52;97.05
63552;BME280;49698;48.072;7.800;2024-02-26T03:39:20;97420.81;;;6.54;97.21
63552;BME280;49698;48.072;7.800;2024-02-26T03:41:48;97421.28;;;6.56;96.84
63552;BME280;49698;48.072;7.800;2024-02-26T03:44:16;97423.34;;;6.59;97.17
63552;BME280;49698;48.072;7.800;2024-02-26T03:46:44;97423.34;;;6.59;97.10
63552;BME280;49698;48.072;7.800;2024-02-26T03:49:13;97427.59;;;6.60;97.04
63552;BME280;49698;48.072;7.800;2024-02-26T03:51:41;97431.06;;;6.61;97.38
63552;BME280;49698;48.072;7.800;2024-02-26T03:54:09;97442.50;;;6.61;97.49
63552;BME280;49698;48.072;7.800;2024-02-26T03:56:37;97447.84;;;6.61;97.60
63552;BME280;49698;48.072;7.800;2024-02-26T03:59:05;97444.72;;;6.59;98.51
63552;BME280;49698;48.072;7.800;2024-02-26T04:01:33;97433.25;;;6.59;98.19
63552;BME280;49698;48.072;7.800;2024-02-26T04:04:01;97442.03;;;6.59;98.42
63552;BME280;49698;48.072;7.800;2024-02-26T04:06:30;97438.59;;;6.59;98.41
63552;BME280;49698;48.072;7.800;2024-02-26T04:08:59;97434.03;;;6.59;98.33
63552;BME280;49698;48.072;7.800;2024-02-26T04:11:27;97436.22;;;6.57;98.90
63552;BME280;49698;48.072;7.800;2024-02-26T04:13:55;97441.53;;;6.57;98.69
63552;BME280;49698;48.072;7.800;2024-02-26T04:16:23;97444.22;;;6.57;98.99
63552;BME280;49698;48.072;7.800;2024-02-26T04:18:51;97446.88;;;6.57;98.88
63552;BME280;49698;48.072;7.800;2024-02-26T04:21:20;97433.84;;;6.56;99.14
63552;BME280;49698;48.072;7.800;2024-02-26T04:23:49;97431.97;;;6.56;99.39
63552;BME280;49698;48.072;7.800;2024-02-26T04:26:17;97429.31;;;6.56;99.73
63552;BME280;49698;48.072;7.800;2024-02-26T04:28:45;97431.97;;;6.56;99.63
63552;BME280;49698;48.072;7.800;2024-02-26T04:31:12;97432.56;;;6.53;99.67
63552;BME280;49698;48.072;7.800;2024-02-26T04:33:40;97440.59;;;6.53;100.00
63552;BME280;49698;48.072;7.800;2024-02-26T04:36:12;97436.34;;;6.52;100.00
63552;BME280;49698;48.072;7.800;2024-02-26T04:38:40;97435.84;;;6.50;100.00
63552;BME280;49698;48.072;7.800;2024-02-26T04:41:09;97433.19;;;6.50;100.00
63552;BME280;49698;48.072;7.800;2024-02-26T04:43:37;97431.59;;;6.49;100.00
63552;BME280;49698;48.072;7.800;2024-02-26T04:46:08;97436.16;;;6.49;100.00
63552;BME280;49698;48.072;7.800;2024-02-26T04:48:35;97424.69;;;6.48;100.00
63552;BME280;49698;48.072;7.800;2024-02-26T04:51:05;97435.69;;;6.47;100.00
63552;BME280;49698;48.072;7.800;2024-02-26T04:53:32;97431.75;;;6.44;100.00
63552;BME280;49698;48.072;7.800;2024-02-26T04:56:00;97431.75;;;6.44;100.00
63552;BME280;49698;48.072;7.800;2024-02-26T04:58:30;97429.66;;;6.41;100.00
63552;BME280;49698;48.072;7.800;2024-02-26T05:00:58;97432.34;;;6.41;100.00
63552;BME280;49698;48.072;7.800;2024-02-26T05:03:26;97425.44;;;6.40;100.00
63552;BME280;49698;48.072;7.800;2024-02-26T05:05:53;97433.72;;;6.38;100.00
63552;BME280;49698;48.072;7.800;2024-02-26T05:08:21;97432.94;;;6.38;100.00
63552;BME280;49698;48.072;7.800;2024-02-26T05:10:49;97431.38;;;6.37;100.00
63552;BME280;49698;48.072;7.800;2024-02-26T05:13:17;97430.59;;;6.36;100.00
63552;BME280;49698;48.072;7.800;2024-02-26T05:15:46;97425.56;;;6.35;100.00
63552;BME280;49698;48.072;7.800;2024-02-26T05:18:15;97419.72;;;6.33;100.00
63552;BME280;49698;48.072;7.800;2024-02-26T05:20:43;97419.22;;;6.31;100.00
63552;BME280;49698;48.072;7.800;2024-02-26T05:23:11;97426.44;;;6.30;100.00
63552;BME280;49698;48.072;7.800;2024-02-26T05:25:39;97419.53;;;6.29;100.00
63552;BME280;49698;48.072;7.800;2024-02-26T05:28:10;97417.97;;;6.28;100.00
63552;BME280;49698;48.072;7.800;2024-02-26T05:30:38;97416.09;;;6.29;100.00
63552;BME280;49698;48.072;7.800;2024-02-26T05:33:08;97404.31;;;6.30;100.00
63552;BME280;49698;48.072;7.800;2024-02-26T05:35:36;97407.00;;;6.30;100.00
63552;BME280;49698;48.072;7.800;2024-02-26T05:38:04;97403.22;;;6.31;100.00
63552;BME280;49698;48.072;7.800;2024-02-26T05:40:32;97407.00;;;6.30;100.00
63552;BME280;49698;48.072;7.800;2024-02-26T05:43:00;97410.44;;;6.30;100.00
63552;BME280;49698;48.072;7.800;2024-02-26T05:45:28;97417.38;;;6.31;100.00
63552;BME280;49698;48.072;7.800;2024-02-26T05:47:56;97415.50;;;6.32;100.00
63552;BME280;49698;48.072;7.800;2024-02-26T05:50:25;97411.22;;;6.31;100.00
63552;BME280;49698;48.072;7.800;2024-02-26T05:52:53;97412.31;;;6.30;100.00
63552;BME280;49698;48.072;7.800;2024-02-26T05:55:21;97409.66;;;6.30;100.00
63552;BME280;49698;48.072;7.800;2024-02-26T05:57:48;97411.84;;;6.28;100.00
63552;BME280;49698;48.072;7.800;2024-02-26T06:00:17;97417.78;;;6.25;100.00
63552;BME280;49698;48.072;7.800;2024-02-26T06:02:45;97423.72;;;6.22;100.00
63552;BME280;49698;48.072;7.800;2024-02-26T06:05:13;97415.25;;;6.20;100.00
63552;BME280;49698;48.072;7.800;2024-02-26T06:07:42;97421.97;;;6.17;100.00
63552;BME280;49698;48.072;7.800;2024-02-26T06:10:10;97426.78;;;6.15;100.00
63552;BME280;49698;48.072;7.800;2024-02-26T06:12:40;97429.78;;;6.13;100.00
63552;BME280;49698;48.072;7.800;2024-02-26T06:15:08;97431.94;;;6.11;100.00
63552;BME280;49698;48.072;7.800;2024-02-26T06:17:36;97432.25;;;6.10;100.00
63552;BME280;49698;48.072;7.800;2024-02-26T06:20:04;97436.81;;;6.09;100.00
63552;BME280;49698;48.072;7.800;2024-02-26T06:22:33;97438.38;;;6.10;100.00
63552;BME280;49698;48.072;7.800;2024-02-26T06:25:02;97437.28;;;6.11;100.00
63552;BME280;49698;48.072;7.800;2024-02-26T06:27:30;97444.22;;;6.12;100.00
63552;BME280;49698;48.072;7.800;2024-02-26T06:29:57;97438.56;;;6.14;100.00
63552;BME280;49698;48.072;7.800;2024-02-26T06:32:25;97443.91;;;6.14;100.00
63552;BME280;49698;48.072;7.800;2024-02-26T06:34:54;97447.06;;;6.16;100.00
63552;BME280;49698;48.072;7.800;2024-02-26T06:37:23;97445.47;;;6.15;100.00
63552;BME280;49698;48.072;7.800;2024-02-26T06:39:52;97450.53;;;6.17;100.00
63552;BME280;49698;48.072;7.800;2024-02-26T06:42:21;97456.31;;;6.19;100.00
63552;BME280;49698;48.072;7.800;2024-02-26T06:44:49;97454.94;;;6.21;100.00
63552;BME280;49698;48.072;7.800;2024-02-26T06:47:16;97458.09;;;6.23;100.00
63552;BME280;49698;48.072;7.800;2024-02-26T06:49:46;97456.72;;;6.26;100.00
63552;BME280;49698;48.072;7.800;2024-02-26T06:52:14;97449.22;;;6.28;100.00
63552;BME280;49698;48.072;7.800;2024-02-26T06:54:41;97453.13;;;6.30;100.00
63552;BME280;49698;48.072;7.800;2024-02-26T06:57:10;97450.97;;;6.32;100.00
63552;BME280;49698;48.072;7.800;2024-02-26T06:59:39;97441.56;;;6.35;100.00
63552;BME280;49698;48.072;7.800;2024-02-26T07:02:06;97438.28;;;6.38;100.00
63552;BME280;49698;48.072;7.800;2024-02-26T07:04:34;97431.56;;;6.41;100.00
63552;BME280;49698;48.072;7.800;2024-02-26T07:07:03;97438.19;;;6.43;100.00
63552;BME280;49698;48.072;7.800;2024-02-26T07:09:31;97445.56;;;6.46;100.00
63552;BME280;49698;48.072;7.800;2024-02-26T07:11:59;97441.50;;;6.49;100.00
63552;BME280;49698;48.072;7.800;2024-02-26T07:14:26;97446.53;;;6.50;100.00
63552;BME280;49698;48.072;7.800;2024-02-26T07:16:56;97448.13;;;6.51;100.00
63552;BME280;49698;48.072;7.800;2024-02-26T07:19:24;97461.16;;;6.53;100.00
63552;BME280;49698;48.072;7.800;2024-02-26T07:21:52;97461.94;;;6.53;100.00
63552;BME280;49698;48.072;7.800;2024-02-26T07:24:20;97462.72;;;6.54;100.00
63552;BME280;49698;48.072;7.800;2024-02-26T07:26:48;97468.88;;;6.54;100.00
63552;BME280;49698;48.072;7.800;2024-02-26T07:29:15;97471.22;;;6.56;100.00
63552;BME280;49698;48.072;7.800;2024-02-26T07:31:43;97475.00;;;6.55;100.00
63552;BME280;49698;48.072;7.800;2024-02-26T07:34:15;97472.00;;;6.56;100.00
63552;BME280;49698;48.072;7.800;2024-02-26T07:36:43;97468.56;;;6.56;100.00
63552;BME280;49698;48.072;7.800;2024-02-26T07:39:11;97471.69;;;6.58;100.00
63552;BME280;49698;48.072;7.800;2024-02-26T07:41:39;97474.25;;;6.63;100.00
63552;BME280;49698;48.072;7.800;2024-02-26T07:44:07;97471.16;;;6.70;100.00
63552;BME280;49698;48.072;7.800;2024-02-26T07:46:35;97471.22;;;6.78;100.00
63552;BME280;49698;48.072;7.800;2024-02-26T07:49:03;97462.75;;;6.85;100.00
63552;BME280;49698;48.072;7.800;2024-02-26T07:51:32;97471.63;;;6.94;100.00
63552;BME280;49698;48.072;7.800;2024-02-26T07:54:01;97470.38;;;7.00;100.00
63552;BME280;49698;48.072;7.800;2024-02-26T07:56:29;97470.75;;;7.07;100.00
63552;BME280;49698;48.072;7.800;2024-02-26T07:58:57;97481.31;;;7.13;100.00
63552;BME280;49698;48.072;7.800;2024-02-26T08:01:25;97484.44;;;7.15;100.00
63552;BME280;49698;48.072;7.800;2024-02-26T08:03:53;97485.91;;;7.21;100.00
63552;BME280;49698;48.072;7.800;2024-02-26T08:06:22;97480.09;;;7.27;100.00
63552;BME280;49698;48.072;7.800;2024-02-26T08:08:51;97478.09;;;7.33;100.00
63552;BME280;49698;48.072;7.800;2024-02-26T08:11:21;97474.19;;;7.39;100.00
63552;BME280;49698;48.072;7.800;2024-02-26T08:13:49;97478.63;;;7.44;100.00
63552;BME280;49698;48.072;7.800;2024-02-26T08:16:17;97472.34;;;7.48;100.00
63552;BME280;49698;48.072;7.800;2024-02-26T08:18:45;97470.00;;;7.55;100.00
63552;BME280;49698;48.072;7.800;2024-02-26T08:21:13;97473.00;;;7.63;100.00
63552;BME280;49698;48.072;7.800;2024-02-26T08:23:42;97471.44;;;7.70;100.00
63552;BME280;49698;48.072;7.800;2024-02-26T08:26:11;97475.72;;;7.80;100.00
63552;BME280;49698;48.072;7.800;2024-02-26T08:28:39;97487.22;;;7.89;100.00
63552;BME280;49698;48.072;7.800;2024-02-26T08:31:07;97478.44;;;7.97;100.00
63552;BME280;49698;48.072;7.800;2024-02-26T08:33:35;97485.69;;;8.05;100.00
63552;BME280;49698;48.072;7.800;2024-02-26T08:36:03;97485.53;;;8.11;100.00
63552;BME280;49698;48.072;7.800;2024-02-26T08:38:31;97496.09;;;8.16;100.00
63552;BME280;49698;48.072;7.800;2024-02-26T08:41:01;97499.72;;;8.20;100.00
63552;BME280;49698;48.072;7.800;2024-02-26T08:43:32;97503.81;;;8.26;100.00
63552;BME280;49698;48.072;7.800;2024-02-26T08:46:00;97514.84;;;8.33;100.00
63552;BME280;49698;48.072;7.800;2024-02-26T08:48:28;97507.97;;;8.41;100.00
63552;BME280;49698;48.072;7.800;2024-02-26T08:50:55;97508.25;;;8.48;100.00
63552;BME280;49698;48.072;7.800;2024-02-26T08:53:23;97512.03;;;8.55;100.00
63552;BME280;49698;48.072;7.800;2024-02-26T08:55:53;97509.22;;;8.61;100.00
63552;BME280;49698;48.072;7.800;2024-02-26T08:58:21;97514.72;;;8.64;100.00
63552;BME280;49698;48.072;7.800;2024-02-26T09:00:50;97515.69;;;8.68;100.00
63552;BME280;49698;48.072;7.800;2024-02-26T09:03:18;97508.09;;;8.70;100.00
63552;BME280;49698;48.072;7.800;2024-02-26T09:05:45;97504.34;;;8.71;100.00
63552;BME280;49698;48.072;7.800;2024-02-26T09:08:14;97505.91;;;8.72;100.00
63552;BME280;49698;48.072;7.800;2024-02-26T09:10:41;97512.50;;;8.75;100.00
63552;BME280;49698;48.072;7.800;2024-02-26T09:13:09;97520.22;;;8.76;100.00
63552;BME280;49698;48.072;7.800;2024-02-26T09:15:37;97520.41;;;8.80;100.00
63552;BME280;49698;48.072;7.800;2024-02-26T09:18:06;97523.22;;;8.84;100.00
63552;BME280;49698;48.072;7.800;2024-02-26T09:20:34;97531.41;;;8.87;100.00
63552;BME280;49698;48.072;7.800;2024-02-26T09:23:02;97536.59;;;8.92;100.00
63552;BME280;49698;48.072;7.800;2024-02-26T09:25:30;97535.50;;;8.93;100.00
63552;BME280;49698;48.072;7.800;2024-02-26T09:27:59;97542.41;;;8.94;100.00
63552;BME280;49698;48.072;7.800;2024-02-26T09:30:27;97537.06;;;8.94;100.00
63552;BME280;49698;48.072;7.800;2024-02-26T09:32:55;97530.63;;;8.95;100.00
63552;BME280;49698;48.072;7.800;2024-02-26T09:35:24;97537.22;;;8.98;100.00
63552;BME280;49698;48.072;7.800;2024-02-26T09:37:53;97529.34;;;9.01;100.00
63552;BME280;49698;48.072;7.800;2024-02-26T09:40:21;97536.28;;;9.02;100.00
63552;BME280;49698;48.072;7.800;2024-02-26T09:42:49;97536.75;;;9.04;100.00
63552;BME280;49698;48.072;7.800;2024-02-26T09:45:21;97547.16;;;9.06;100.00
63552;BME280;49698;48.072;7.800;2024-02-26T09:47:49;97551.72;;;9.05;100.00
63552;BME280;49698;48.072;7.800;2024-02-26T09:50:17;97555.50;;;9.04;100.00
63552;BME280;49698;48.072;7.800;2024-02-26T09:52:50;97560.41;;;9.02;100.00
63552;BME280;49698;48.072;7.800;2024-02-26T09:55:18;97568.13;;;9.04;100.00
63552;BME280;49698;48.072;7.800;2024-02-26T09:57:46;97569.38;;;9.06;100.00
63552;BME280;49698;48.072;7.800;2024-02-26T10:00:18;97563.38;;;9.10;100.00
63552;BME280;49698;48.072;7.800;2024-02-26T10:02:48;97567.47;;;9.16;100.00
63552;BME280;49698;48.072;7.800;2024-02-26T10:05:16;97568.41;;;9.20;100.00
63552;BME280;49698;48.072;7.800;2024-02-26T10:07:45;97573.44;;;9.21;100.00
63552;BME280;49698;48.072;7.800;2024-02-26T10:10:14;97575.03;;;9.22;100.00
63552;BME280;49698;48.072;7.800;2024-02-26T10:12:42;97577.38;;;9.24;100.00
63552;BME280;49698;48.072;7.800;2024-02-26T10:15:09;97571.41;;;9.27;100.00
63552;BME280;49698;48.072;7.800;2024-02-26T10:17:37;97574.22;;;9.30;100.00
63552;BME280;49698;48.072;7.800;2024-02-26T10:20:12;97577.06;;;9.34;100.00
63552;BME280;49698;48.072;7.800;2024-02-26T10:22:42;97589.69;;;9.34;100.00
63552;BME280;49698;48.072;7.800;2024-02-26T10:25:10;97591.09;;;9.31;100.00
63552;BME280;49698;48.072;7.800;2024-02-26T10:27:39;97588.88;;;9.33;100.00
63552;BME280;49698;48.072;7.800;2024-02-26T10:30:15;97576.44;;;9.37;100.00
63552;BME280;49698;48.072;7.800;2024-02-26T10:32:44;97572.63;;;9.38;100.00
63552;BME280;49698;48.072;7.800;2024-02-26T10:35:12;97583.81;;;9.40;99.85
63552;BME280;49698;48.072;7.800;2024-02-26T10:37:40;97592.34;;;9.42;99.14
63552;BME280;49698;48.072;7.800;2024-02-26T10:40:09;97602.88;;;9.47;98.63
63552;BME280;49698;48.072;7.800;2024-02-26T10:42:40;97592.94;;;9.57;98.26
63552;BME280;49698;48.072;7.800;2024-02-26T10:45:12;97584.53;;;9.67;97.89
63552;BME280;49698;48.072;7.800;2024-02-26T10:47:40;97587.50;;;9.74;96.33
63552;BME280;49698;48.072;7.800;2024-02-26T10:50:09;97597.44;;;9.82;96.32
63552;BME280;49698;48.072;7.800;2024-02-26T10:52:37;97591.22;;;9.90;96.00
63552;BME280;49698;48.072;7.800;2024-02-26T10:55:05;97588.53;;;9.99;95.66
63552;BME280;49698;48.072;7.800;2024-02-26T10:57:35;97588.00;;;10.05;95.34
63552;BME280;49698;48.072;7.800;2024-02-26T11:00:07;97586.72;;;10.12;95.09
63552;BME280;49698;48.072;7.800;2024-02-26T11:02:39;97584.31;;;10.19;94.90
63552;BME280;49698;48.072;7.800;2024-02-26T11:05:07;97587.94;;;10.23;94.30
63552;BME280;49698;48.072;7.800;2024-02-26T11:07:35;97585.88;;;10.28;94.24
63552;BME280;49698;48.072;7.800;2024-02-26T11:10:05;97582.19;;;10.33;94.08
63552;BME280;49698;48.072;7.800;2024-02-26T11:12:33;97582.94;;;10.42;93.94
63552;BME280;49698;48.072;7.800;2024-02-26T11:15:02;97584.47;;;10.52;93.59
63552;BME280;49698;48.072;7.800;2024-02-26T11:17:32;97568.75;;;10.63;93.11
63552;BME280;49698;48.072;7.800;2024-02-26T11:20:01;97582.56;;;10.73;92.78
63552;BME280;49698;48.072;7.800;2024-02-26T11:22:29;97586.44;;;10.85;92.21
63552;BME280;49698;48.072;7.800;2024-02-26T11:24:57;97580.22;;;10.93;91.32
63552;BME280;49698;48.072;7.800;2024-02-26T11:27:28;97583.16;;;11.00;90.43
63552;BME280;49698;48.072;7.800;2024-02-26T11:29:57;97584.63;;;11.10;89.81
63552;BME280;49698;48.072;7.800;2024-02-26T11:32:27;97585.69;;;11.17;89.40
63552;BME280;49698;48.072;7.800;2024-02-26T11:34:57;97584.03;;;11.25;89.13
63552;BME280;49698;48.072;7.800;2024-02-26T11:37:25;97581.72;;;11.36;88.98
63552;BME280;49698;48.072;7.800;2024-02-26T11:39:53;97576.22;;;11.44;88.53
63552;BME280;49698;48.072;7.800;2024-02-26T11:42:22;97572.66;;;11.52;87.99
63552;BME280;49698;48.072;7.800;2024-02-26T11:44:51;97586.69;;;11.58;87.77
63552;BME280;49698;48.072;7.800;2024-02-26T11:47:19;97582.09;;;11.59;87.49
63552;BME280;49698;48.072;7.800;2024-02-26T11:49:47;97577.50;;;11.59;87.01
63552;BME280;49698;48.072;7.800;2024-02-26T11:52:17;97576.06;;;11.62;86.92
63552;BME280;49698;48.072;7.800;2024-02-26T11:54:45;97575.38;;;11.65;86.62
63552;BME280;49698;48.072;7.800;2024-02-26T11:57:20;97572.47;;;11.70;86.36
63552;BME280;49698;48.072;7.800;2024-02-26T11:59:48;97576.50;;;11.76;85.68
63552;BME280;49698;48.072;7.800;2024-02-26T12:05:05;97573.75;;;11.85;85.13
63552;BME280;49698;48.072;7.800;2024-02-26T12:07:35;97571.63;;;11.90;84.83
63552;BME280;49698;48.072;7.800;2024-02-26T12:10:13;97566.34;;;11.94;84.43
63552;BME280;49698;48.072;7.800;2024-02-26T12:12:42;97575.34;;;11.98;84.01
63552;BME280;49698;48.072;7.800;2024-02-26T12:15:12;97578.16;;;12.02;83.51
63552;BME280;49698;48.072;7.800;2024-02-26T12:17:42;97579.47;;;12.08;83.48
63552;BME280;49698;48.072;7.800;2024-02-26T12:20:16;97588.56;;;12.15;82.87
63552;BME280;49698;48.072;7.800;2024-02-26T12:22:49;97581.84;;;12.21;82.69
63552;BME280;49698;48.072;7.800;2024-02-26T12:25:19;97575.13;;;12.28;82.20
63552;BME280;49698;48.072;7.800;2024-02-26T12:27:47;97579.13;;;12.34;81.98
63552;BME280;49698;48.072;7.800;2024-02-26T12:30:16;97575.88;;;12.40;81.63
63552;BME280;49698;48.072;7.800;2024-02-26T12:32:44;97582.25;;;12.48;80.67
63552;BME280;49698;48.072;7.800;2024-02-26T12:35:12;97575.75;;;12.49;80.50
63552;BME280;49698;48.072;7.800;2024-02-26T12:37:40;97577.66;;;12.48;80.23
63552;BME280;49698;48.072;7.800;2024-02-26T12:40:10;97579.22;;;12.49;80.52
63552;BME280;49698;48.072;7.800;2024-02-26T12:42:38;97578.56;;;12.53;79.87
63552;BME280;49698;48.072;7.800;2024-02-26T12:45:07;97582.03;;;12.53;79.77
63552;BME280;49698;48.072;7.800;2024-02-26T12:47:36;97583.69;;;12.58;79.63
63552;BME280;49698;48.072;7.800;2024-02-26T12:50:05;97581.09;;;12.61;79.16
63552;BME280;49698;48.072;7.800;2024-02-26T12:52:35;97579.19;;;12.62;78.53
63552;BME280;49698;48.072;7.800;2024-02-26T12:55:03;97580.88;;;12.66;78.47
63552;BME280;49698;48.072;7.800;2024-02-26T12:57:33;97581.19;;;12.77;78.35
63552;BME280;49698;48.072;7.800;2024-02-26T13:00:02;97580.91;;;12.94;77.64
63552;BME280;49698;48.072;7.800;2024-02-26T13:02:31;97576.81;;;13.13;76.89
63552;BME280;49698;48.072;7.800;2024-02-26T13:04:59;97587.91;;;13.24;76.06
63552;BME280;49698;48.072;7.800;2024-02-26T13:07:28;97582.50;;;13.24;75.68
63552;BME280;49698;48.072;7.800;2024-02-26T13:09:56;97585.88;;;13.20;75.45
63552;BME280;49698;48.072;7.800;2024-02-26T13:12:24;97576.31;;;13.23;75.77
63552;BME280;49698;48.072;7.800;2024-02-26T13:14:59;97578.34;;;13.26;75.39